Time;durP1;ratioP1;P1;durP2;ratioP2;P2;SDS_P1;SDS_P2;PMS_P1;PMS_P2;Temp;Humidity;BMP_temperature;BMP_pressure;BME280_temperature;BME280_humidity;BME280_pressure;Samples;Min_cycle;Max_cycle;Signal;HPM_P1;HPM_P2
2023/02/05 00:15:39;;;;;;;2.70;1.30;;;-0.50;89.60;;;;;;5304704;24;20052;-79
2023/02/05 07:02:01;;;;;;;4.43;1.15;;;-0.50;77.90;;;;;;3877454;24;20323;-78
2023/02/05 07:04:50;;;;;;;5.53;1.63;;;-0.40;77.60;;;;;;4739334;24;20053;31
2023/02/05 07:07:17;;;;;;;7.57;1.80;;;-0.40;77.50;;;;;;4877806;24;20048;-80
2023/02/05 07:09:45;;;;;;;7.93;2.28;;;-0.30;76.30;;;;;;4742772;30;20048;-79
2023/02/05 07:12:14;;;;;;;8.73;3.05;;;-0.30;76.00;;;;;;4966383;24;20028;-79
2023/02/05 07:14:43;;;;;;;6.88;2.00;;;-0.30;74.30;;;;;;4891734;25;20068;-77
2023/02/05 07:17:10;;;;;;;5.28;1.30;;;-0.20;74.90;;;;;;4795130;24;20056;-78
2023/02/05 07:19:38;;;;;;;10.95;2.42;;;-0.30;73.40;;;;;;4729212;30;20045;-78
2023/02/05 07:22:05;;;;;;;4.68;1.02;;;-0.10;73.90;;;;;;4728078;30;20079;-77
2023/02/05 07:24:32;;;;;;;5.78;1.20;;;0.00;73.30;;;;;;4718000;30;20059;-77
2023/02/05 07:26:59;;;;;;;7.75;1.70;;;0.20;73.10;;;;;;4739714;30;20127;-78
2023/02/05 07:29:31;;;;;;;7.10;1.70;;;0.30;72.30;;;;;;4719537;30;20063;-79
2023/02/05 07:32:18;;;;;;;1.63;0.20;;;0.40;71.30;;;;;;4731093;30;20056;-78
2023/02/05 07:34:52;;;;;;;2.38;0.70;;;0.40;69.20;;;;;;4729184;30;20545;-78
2023/02/05 07:37:28;;;;;;;1.88;0.50;;;0.40;69.40;;;;;;4708101;30;20782;-78
2023/02/05 07:39:55;;;;;;;3.28;1.02;;;0.40;68.70;;;;;;4705850;30;20049;-78
2023/02/05 07:42:23;;;;;;;2.30;0.60;;;0.50;69.10;;;;;;4715233;30;20052;-79
2023/02/05 07:44:58;;;;;;;1.52;0.40;;;0.50;69.00;;;;;;4709129;30;20033;-78
2023/02/05 07:47:34;;;;;;;2.60;0.80;;;0.20;68.70;;;;;;4709479;30;20069;-78
2023/02/05 07:50:01;;;;;;;2.28;0.52;;;0.10;69.40;;;;;;4705746;30;20080;-78
2023/02/05 07:52:33;;;;;;;5.55;1.55;;;0.20;70.70;;;;;;4676504;30;20136;-78
2023/02/05 07:58:08;;;;;;;6.15;1.30;;;0.30;70.60;;;;;;4715326;30;20057;-78
2023/02/05 08:00:42;;;;;;;3.17;0.98;;;0.60;70.90;;;;;;4751076;24;20068;-78
2023/02/05 08:03:34;;;;;;;2.17;0.65;;;0.70;70.20;;;;;;4709406;30;20070;-78
2023/02/05 08:06:06;;;;;;;5.47;1.17;;;0.40;69.70;;;;;;4982760;24;20488;-79
2023/02/05 08:08:33;;;;;;;4.75;1.40;;;0.60;72.10;;;;;;4742269;30;20045;-80
2023/02/05 08:11:03;;;;;;;10.57;1.98;;;0.60;72.30;;;;;;4724295;30;20087;-78
2023/02/05 08:13:32;;;;;;;8.25;1.63;;;0.70;72.70;;;;;;4736032;30;20099;-78
2023/02/05 08:16:07;;;;;;;2.50;0.90;;;0.70;72.90;;;;;;4716530;30;20048;-78
2023/02/05 08:18:37;;;;;;;2.80;0.70;;;0.40;72.30;;;;;;4710037;30;20049;-78
2023/02/05 08:21:07;;;;;;;4.28;1.30;;;0.40;73.00;;;;;;4703866;30;20053;-78
2023/02/05 08:23:40;;;;;;;3.10;0.80;;;0.40;73.70;;;;;;4732806;30;20056;-78
2023/02/05 08:26:07;;;;;;;4.85;1.50;;;0.50;73.80;;;;;;4733655;30;20033;-78
2023/02/05 08:28:34;;;;;;;4.13;1.25;;;0.50;72.80;;;;;;4718398;30;20111;-78
2023/02/05 08:31:15;;;;;;;6.45;1.50;;;0.40;72.00;;;;;;4720887;30;20064;-79
2023/02/05 08:33:44;;;;;;;5.78;1.55;;;0.20;71.10;;;;;;4731803;30;20036;-80
2023/02/05 08:36:12;;;;;;;2.78;0.70;;;0.30;72.10;;;;;;4701054;30;20844;-79
2023/02/05 08:38:39;;;;;;;5.25;0.57;;;0.40;72.10;;;;;;4666611;30;20049;-79
2023/02/05 08:44:32;;;;;;;3.47;1.50;;;0.80;71.70;;;;;;4752885;24;20404;31
2023/02/05 08:47:00;;;;;;;4.63;1.50;;;0.90;71.10;;;;;;4702389;30;20450;-80
2023/02/05 08:49:28;;;;;;;5.45;1.95;;;1.10;70.50;;;;;;4703605;30;20777;-80
2023/02/05 08:52:02;;;;;;;2.67;0.73;;;0.90;69.40;;;;;;4696300;30;20064;-80
2023/02/05 08:54:37;;;;;;;3.13;0.50;;;1.50;70.30;;;;;;5144309;24;20116;31
2023/02/05 08:57:06;;;;;;;4.70;1.10;;;1.50;68.30;;;;;;4715894;30;20064;-80
2023/02/05 08:59:35;;;;;;;1.70;0.40;;;1.20;65.80;;;;;;5241530;24;20050;-78
2023/02/05 09:02:36;;;;;;;2.05;0.50;;;0.90;65.60;;;;;;5259643;24;20124;31
2023/02/05 09:05:13;;;;;;;1.42;0.40;;;1.10;65.60;;;;;;5228944;24;20041;31
2023/02/05 09:07:41;;;;;;;1.98;0.40;;;1.50;66.30;;;;;;4707835;30;20044;-79
2023/02/05 09:10:41;;;;;;;4.53;0.98;;;1.50;66.40;;;;;;5071283;24;20064;-78
2023/02/05 09:16:19;;;;;;;6.53;1.58;;;1.50;66.90;;;;;;4739730;30;20864;-79
2023/02/05 09:18:47;;;;;;;10.20;3.53;;;1.70;68.00;;;;;;4718826;30;20571;-79
2023/02/05 09:21:15;;;;;;;2.92;1.02;;;1.90;69.20;;;;;;4727670;30;20052;-79
2023/02/05 09:23:42;;;;;;;2.13;0.70;;;1.70;70.60;;;;;;4928382;24;20098;-79
2023/02/05 09:33:30;;;;;;;13.27;5.57;;;1.10;73.30;;;;;;4877800;24;20052;-78
2023/02/05 09:36:08;;;;;;;5.60;2.00;;;0.40;76.30;;;;;;4702206;30;20202;-78
2023/02/05 09:41:14;;;;;;;13.98;4.95;;;1.10;77.70;;;;;;4723502;30;20088;-79
2023/02/05 09:43:55;;;;;;;13.48;4.68;;;0.90;78.40;;;;;;4722592;30;20049;-79
2023/02/05 09:46:45;;;;;;;4.88;1.63;;;0.60;78.20;;;;;;4713552;30;20071;-79
2023/02/05 09:49:41;;;;;;;10.10;3.10;;;0.90;76.70;;;;;;4725298;30;20072;-78
2023/02/05 09:52:21;;;;;;;5.47;2.92;;;0.90;74.40;;;;;;4719313;30;20090;-78
2023/02/05 09:54:57;;;;;;;5.90;1.48;;;1.10;73.10;;;;;;4736378;30;20089;-78
2023/02/05 09:57:34;;;;;;;9.73;3.83;;;1.10;72.80;;;;;;4729044;30;20045;-78
2023/02/05 10:00:38;;;;;;;5.30;1.52;;;1.00;70.20;;;;;;4730122;30;20055;-78
2023/02/05 10:03:36;;;;;;;1.10;0.52;;;1.40;69.70;;;;;;4697651;30;20280;-78
2023/02/05 10:06:11;;;;;;;5.97;1.35;;;1.40;69.10;;;;;;4712327;30;20056;-78
2023/02/05 10:08:56;;;;;;;1.58;0.40;;;1.50;67.40;;;;;;4729048;30;20040;-79
2023/02/05 10:11:35;;;;;;;1.63;0.80;;;1.60;67.70;;;;;;4728856;30;20533;-79
2023/02/05 10:14:31;;;;;;;7.70;2.60;;;1.90;69.80;;;;;;4727865;30;20048;-79
2023/02/05 10:17:36;;;;;;;9.23;3.15;;;1.80;69.30;;;;;;4711209;30;20049;-79
2023/02/05 10:20:14;;;;;;;6.50;2.85;;;1.80;69.00;;;;;;4703422;30;20056;-79
2023/02/05 10:23:00;;;;;;;5.18;1.80;;;2.10;68.70;;;;;;4723547;30;20431;-79
2023/02/05 10:25:55;;;;;;;3.67;1.15;;;1.60;67.70;;;;;;4732586;30;20048;-79
2023/02/05 10:28:44;;;;;;;24.42;11.98;;;1.10;69.00;;;;;;4727211;30;20817;-79
2023/02/05 10:31:49;;;;;;;9.10;3.95;;;1.30;68.80;;;;;;4727634;30;20082;-79
2023/02/05 10:34:31;;;;;;;6.88;3.47;;;1.60;68.70;;;;;;4729237;30;20052;-79
2023/02/05 10:37:02;;;;;;;2.35;0.57;;;1.30;67.80;;;;;;4719673;30;20056;-79
2023/02/05 10:39:49;;;;;;;5.03;1.45;;;1.00;67.70;;;;;;4716884;30;20064;-79
2023/02/05 10:42:35;;;;;;;25.58;12.27;;;1.00;68.70;;;;;;4721189;30;20076;-79
2023/02/05 10:45:23;;;;;;;11.88;4.93;;;0.90;69.30;;;;;;4704390;30;20045;-79
2023/02/05 10:48:31;;;;;;;3.72;1.00;;;0.90;70.00;;;;;;5510502;24;20038;31
2023/02/05 10:54:28;;;;;;;2.60;0.77;;;1.00;69.10;;;;;;4718571;30;20148;-78
2023/02/05 10:56:57;;;;;;;3.80;0.73;;;1.40;68.00;;;;;;4710928;30;20049;-80
2023/02/05 10:59:31;;;;;;;3.03;1.42;;;1.10;66.90;;;;;;4710779;30;21179;-78
2023/02/05 11:02:06;;;;;;;2.65;0.90;;;1.80;67.40;;;;;;4688702;30;20519;-80
2023/02/05 11:04:51;;;;;;;11.45;5.38;;;1.90;66.60;;;;;;4711452;30;20110;-80
2023/02/05 11:07:34;;;;;;;5.22;1.67;;;2.00;65.70;;;;;;4695575;30;20060;-79
2023/02/05 11:10:17;;;;;;;5.28;1.95;;;2.10;65.80;;;;;;4701805;30;20058;-79
2023/02/05 11:12:53;;;;;;;5.32;1.52;;;2.30;65.60;;;;;;4708499;30;20052;-79
2023/02/05 11:15:32;;;;;;;5.22;1.80;;;2.30;65.00;;;;;;4708060;30;20049;-79
2023/02/05 11:18:05;;;;;;;13.50;5.50;;;2.40;65.10;;;;;;4703633;30;20192;-79
2023/02/05 11:20:39;;;;;;;4.15;1.50;;;2.40;65.50;;;;;;4692112;30;20053;-79
2023/02/05 11:23:26;;;;;;;15.93;7.22;;;2.40;64.20;;;;;;4714588;30;20473;-79
2023/02/05 11:33:04;;;;;;;2.08;0.60;;;2.00;64.20;;;;;;5267206;24;20156;31
2023/02/05 11:36:00;;;;;;;4.00;2.28;;;1.90;63.40;;;;;;4716058;30;20160;-79
2023/02/05 11:38:50;;;;;;;4.95;2.70;;;1.90;63.90;;;;;;4701437;30;20058;-79
2023/02/05 11:41:50;;;;;;;35.75;11.48;;;1.30;63.20;;;;;;4695534;30;20060;-78
2023/02/05 11:44:20;;;;;;;3.17;1.13;;;0.90;62.90;;;;;;4709091;30;20045;-78
2023/02/05 11:50:23;;;;;;;5.68;2.28;;;2.10;63.40;;;;;;4725313;30;20210;-78
2023/02/05 11:52:53;;;;;;;4.63;2.40;;;2.10;64.00;;;;;;4706956;30;20080;-79
2023/02/05 11:55:28;;;;;;;3.35;1.75;;;2.10;63.50;;;;;;4714955;30;20036;-79
2023/02/05 11:58:05;;;;;;;3.50;1.63;;;2.10;63.80;;;;;;4715453;30;20095;-79
2023/02/05 12:00:59;;;;;;;5.35;1.67;;;2.10;64.00;;;;;;4695546;30;20060;-79
2023/02/05 12:03:31;;;;;;;4.25;0.95;;;1.20;64.30;;;;;;4707906;30;20061;-80
2023/02/05 12:13:31;;;;;;;3.40;1.10;;;2.30;63.10;;;;;;5719591;24;21245;31
2023/02/05 12:16:41;;;;;;;5.13;2.25;;;2.30;63.20;;;;;;4713901;30;20266;-80
2023/02/05 12:19:29;;;;;;;4.70;2.40;;;1.60;63.80;;;;;;4707996;30;20042;-79
2023/02/05 12:28:03;;;;;;;8.32;2.30;;;2.50;63.40;;;;;;5017593;24;20289;-78
2023/02/05 12:31:08;;;;;;;4.10;0.90;;;2.30;63.10;;;;;;5282148;24;20756;31
2023/02/05 12:33:54;;;;;;;3.13;1.02;;;2.30;62.30;;;;;;4697611;30;20168;-79
2023/02/05 12:36:57;;;;;;;6.95;2.38;;;2.20;62.00;;;;;;4679196;30;20073;-80
2023/02/05 12:39:43;;;;;;;10.15;3.90;;;2.10;61.60;;;;;;4679995;30;20741;-80
2023/02/05 12:42:32;;;;;;;4.43;1.63;;;2.10;62.20;;;;;;4680617;30;20045;-80
2023/02/05 12:45:57;;;;;;;3.00;1.10;;;2.10;62.40;;;;;;4669960;30;20060;-80
2023/02/05 12:49:37;;;;;;;11.77;6.50;;;2.10;62.00;;;;;;4674533;30;20109;-79
2023/02/05 12:52:22;;;;;;;5.18;2.72;;;2.10;62.40;;;;;;4671939;30;20108;-80
2023/02/05 12:54:59;;;;;;;2.90;1.23;;;2.10;63.00;;;;;;4684016;30;20470;-80
2023/02/05 12:57:52;;;;;;;3.08;1.30;;;2.00;61.60;;;;;;4683962;30;20089;-80
2023/02/05 13:10:44;;;;;;;12.48;6.28;;;2.20;63.00;;;;;;4743545;30;20124;-78
2023/02/05 13:17:05;;;;;;;3.73;0.77;;;2.10;62.20;;;;;;5261714;24;20027;31
2023/02/05 13:30:31;;;;;;;3.35;1.20;;;2.00;61.60;;;;;;5048189;24;20038;31
2023/02/05 13:33:03;;;;;;;47.03;15.07;;;2.10;62.20;;;;;;4730154;30;20045;-80
2023/02/05 13:35:53;;;;;;;42.95;12.80;;;2.00;61.80;;;;;;4731758;30;20067;-79
2023/02/05 13:38:41;;;;;;;5.55;2.85;;;2.00;62.40;;;;;;4719695;30;20053;-79
2023/02/05 13:41:28;;;;;;;6.15;2.45;;;2.00;62.20;;;;;;4705231;30;20052;-79
2023/02/05 13:44:15;;;;;;;6.10;2.30;;;2.40;62.40;;;;;;4856817;24;20068;-80
2023/02/05 13:47:10;;;;;;;6.05;1.90;;;2.30;62.70;;;;;;5363577;24;20904;31
2023/02/05 13:50:21;;;;;;;4.78;1.85;;;1.90;62.00;;;;;;4717873;30;19926;-80
2023/02/05 13:53:01;;;;;;;5.03;2.03;;;1.80;62.60;;;;;;4703595;30;20055;-80
2023/02/05 13:55:38;;;;;;;3.03;1.25;;;1.80;61.80;;;;;;4712737;30;20687;-78
2023/02/05 13:58:22;;;;;;;2.85;1.33;;;1.80;61.70;;;;;;4717645;30;20081;-78
2023/02/05 14:01:00;;;;;;;4.57;2.03;;;1.80;62.40;;;;;;4702334;30;20112;-78
2023/02/05 14:03:39;;;;;;;2.95;1.00;;;1.90;61.90;;;;;;4719035;30;20076;-78
2023/02/05 14:06:20;;;;;;;6.07;2.08;;;1.80;61.60;;;;;;4703135;30;20057;-80
2023/02/05 14:12:20;;;;;;;6.20;1.55;;;1.80;61.80;;;;;;4697636;30;20053;-79
2023/02/05 14:24:46;;;;;;;3.35;0.60;;;1.80;60.10;;;;;;5758062;24;20052;31
2023/02/05 15:12:06;;;;;;;133.23;34.78;;;1.40;61.40;;;;;;5506210;24;20052;-80
2023/02/05 15:15:31;;;;;;;32.22;12.23;;;1.30;61.00;;;;;;5195604;24;20063;-79
2023/02/05 15:18:45;;;;;;;40.88;24.67;;;1.20;61.70;;;;;;5777212;24;20211;31
2023/02/05 15:28:23;;;;;;;7.45;2.42;;;1.10;61.10;;;;;;4701245;30;20041;-79
2023/02/05 15:31:09;;;;;;;7.72;3.17;;;1.10;61.10;;;;;;4678520;30;20034;-80
2023/02/05 15:40:01;;;;;;;101.45;36.22;;;1.00;61.50;;;;;;5447765;24;20120;-80
2023/02/05 15:42:35;;;;;;;102.80;41.67;;;0.90;62.20;;;;;;4729849;30;20065;-79
2023/02/05 15:45:26;;;;;;;134.13;48.90;;;0.90;63.10;;;;;;4743700;30;20135;-78
2023/02/05 15:48:04;;;;;;;61.25;22.95;;;0.80;63.30;;;;;;4720467;30;20057;-79
2023/02/05 15:50:58;;;;;;;67.10;26.58;;;0.80;64.00;;;;;;4727464;30;20049;-79
2023/02/05 15:53:43;;;;;;;29.52;11.57;;;0.30;65.50;;;;;;4714186;30;20178;-79
2023/02/05 15:56:37;;;;;;;24.83;9.30;;;0.70;65.20;;;;;;5089285;24;20060;-80
2023/02/05 15:59:10;;;;;;;25.80;10.30;;;0.70;65.10;;;;;;4752654;30;20055;-79
2023/02/05 16:01:46;;;;;;;30.35;10.65;;;0.60;65.70;;;;;;4739634;30;20069;-79
2023/02/05 16:04:30;;;;;;;34.47;11.65;;;0.60;65.70;;;;;;4739694;30;20052;-79
2023/02/05 17:17:23;;;;;;;13.88;5.20;;;0.60;78.30;;;;;;4723054;30;20076;-78
2023/02/05 17:23:27;;;;;;;6.10;2.50;;;-0.50;80.00;;;;;;4788977;24;20108;31
2023/02/05 17:40:35;;;;;;;9.18;3.60;;;-0.60;79.60;;;;;;5517425;24;20052;-79
2023/02/05 18:29:56;;;;;;;6.40;3.25;;;-0.70;81.20;;;;;;4798408;24;20059;-80
2023/02/05 18:32:25;;;;;;;8.52;3.03;;;-0.70;81.40;;;;;;4883521;24;20161;-80
2023/02/05 18:38:00;;;;;;;7.78;3.80;;;-0.80;80.80;;;;;;4767644;24;20133;-80
2023/02/05 18:40:33;;;;;;;12.68;3.63;;;-0.80;80.80;;;;;;4739047;30;20093;-79
2023/02/05 18:43:23;;;;;;;7.65;3.33;;;-0.80;80.70;;;;;;4739076;30;20106;-78
